Time;durP1;ratioP1;P1;durP2;ratioP2;P2;SDS_P1;SDS_P2;PMS_P1;PMS_P2;Temp;Humidity;BMP_temperature;BMP_pressure;BME280_temperature;BME280_humidity;BME280_pressure;Samples;Min_cycle;Max_cycle;Signal;HPM_P1;HPM_P2
2021/03/07 00:01:57;;;;;;;12.85;10.20;;;-0.20;77.10;;;;;;5077270;29;20115;-64
2021/03/07 00:04:29;;;;;;;13.82;9.90;;;-0.20;77.20;;;;;;5075497;29;20191;-64
2021/03/07 00:07:00;;;;;;;14.02;10.55;;;-0.20;76.40;;;;;;5074844;29;20064;-64
2021/03/07 00:09:32;;;;;;;12.73;10.02;;;-0.20;77.20;;;;;;5077268;29;20115;-65
2021/03/07 00:12:04;;;;;;;14.07;10.05;;;-0.20;77.40;;;;;;5075858;29;20048;-66
2021/03/07 00:14:35;;;;;;;11.90;9.38;;;-0.30;78.00;;;;;;5078131;29;20434;-64
2021/03/07 00:17:06;;;;;;;12.10;7.78;;;-0.30;78.70;;;;;;5067907;29;20041;-64
2021/03/07 00:19:38;;;;;;;10.07;8.18;;;-0.30;78.20;;;;;;5071779;29;20048;-64
2021/03/07 00:22:09;;;;;;;13.88;9.40;;;-0.40;78.20;;;;;;5068162;29;20071;-64
2021/03/07 00:24:41;;;;;;;13.82;10.20;;;-0.40;78.00;;;;;;5070961;29;20040;-65
2021/03/07 00:27:13;;;;;;;13.73;10.65;;;-0.40;77.90;;;;;;5066149;29;20048;-64
2021/03/07 00:29:44;;;;;;;14.80;11.32;;;-0.40;78.40;;;;;;5070712;29;20039;-64
2021/03/07 00:32:16;;;;;;;14.48;10.43;;;-0.40;78.00;;;;;;5073846;29;20143;-65
2021/03/07 00:34:47;;;;;;;16.27;10.75;;;-0.40;77.90;;;;;;5071809;29;20503;-66
2021/03/07 00:37:19;;;;;;;13.90;10.25;;;-0.40;78.00;;;;;;5071647;29;20147;-64
2021/03/07 00:39:50;;;;;;;15.90;10.88;;;-0.40;77.70;;;;;;5075709;29;20048;-64
2021/03/07 00:42:22;;;;;;;16.52;12.23;;;-0.30;77.70;;;;;;5073354;29;20127;-64
2021/03/07 00:44:53;;;;;;;15.10;10.77;;;-0.40;77.60;;;;;;5076476;29;20091;-64
2021/03/07 00:47:24;;;;;;;16.73;10.90;;;-0.30;77.10;;;;;;5072394;29;20419;-64
2021/03/07 00:49:56;;;;;;;14.95;11.48;;;-0.40;77.30;;;;;;5074183;29;20044;-64
2021/03/07 00:52:28;;;;;;;15.23;10.85;;;-0.40;77.20;;;;;;5073598;29;20082;-64
2021/03/07 00:54:59;;;;;;;14.32;11.15;;;-0.40;77.40;;;;;;5074811;29;20064;-64
2021/03/07 00:57:31;;;;;;;14.65;9.77;;;-0.40;76.90;;;;;;5072963;29;20060;-66
2021/03/07 01:00:35;;;;;;;14.20;10.27;;;-0.40;77.10;;;;;;5074278;29;20576;-64
2021/03/07 01:03:06;;;;;;;14.73;11.43;;;-0.40;76.30;;;;;;5062512;29;20517;-65
2021/03/07 01:05:38;;;;;;;13.85;10.40;;;-0.40;76.70;;;;;;5092708;29;20130;-67
2021/03/07 01:08:10;;;;;;;16.27;11.07;;;-0.40;76.50;;;;;;5092093;29;20906;-64
2021/03/07 01:10:43;;;;;;;14.00;10.35;;;-0.50;76.80;;;;;;5092146;29;20059;-64
2021/03/07 01:13:17;;;;;;;15.57;11.63;;;-0.40;76.80;;;;;;5094359;29;20107;-64
2021/03/07 01:15:48;;;;;;;12.43;9.93;;;-0.50;76.90;;;;;;5090115;29;20069;-65
2021/03/07 01:18:20;;;;;;;14.40;10.85;;;-0.50;77.10;;;;;;5095212;29;20111;-66
2021/03/07 01:20:52;;;;;;;15.10;11.35;;;-0.50;77.20;;;;;;5091397;29;20474;-65
2021/03/07 01:23:24;;;;;;;18.30;12.00;;;-0.60;77.40;;;;;;5093516;29;20793;-66
2021/03/07 01:25:56;;;;;;;15.82;11.65;;;-0.60;77.50;;;;;;5092219;29;20614;-65
2021/03/07 01:28:27;;;;;;;17.50;10.90;;;-0.60;77.60;;;;;;5091962;29;20131;-65
2021/03/07 01:30:59;;;;;;;16.95;11.20;;;-0.60;77.50;;;;;;5094359;29;20127;-65
2021/03/07 01:33:31;;;;;;;15.52;11.52;;;-0.70;78.50;;;;;;5087854;29;20055;-66
2021/03/07 01:36:03;;;;;;;16.88;11.23;;;-0.80;78.50;;;;;;5093118;29;20059;-66
2021/03/07 01:38:34;;;;;;;16.10;11.77;;;-0.90;79.40;;;;;;5091027;29;20052;-66
2021/03/07 01:41:06;;;;;;;16.88;11.60;;;-0.90;79.00;;;;;;5088785;29;20644;-64
2021/03/07 01:43:37;;;;;;;15.18;10.95;;;-1.00;79.40;;;;;;5093058;29;20128;-65
2021/03/07 01:46:09;;;;;;;16.58;10.77;;;-1.00;78.90;;;;;;5094699;29;20052;-65
2021/03/07 01:48:40;;;;;;;14.80;10.60;;;-1.00;79.10;;;;;;5092598;29;20052;-65
2021/03/07 01:51:13;;;;;;;17.67;11.52;;;-1.00;78.70;;;;;;5090206;29;20181;-65
2021/03/07 01:53:45;;;;;;;15.90;10.43;;;-0.90;78.80;;;;;;5093087;29;20068;-65
2021/03/07 01:56:18;;;;;;;15.00;11.00;;;-0.90;78.10;;;;;;5090925;29;20402;-65
2021/03/07 01:58:52;;;;;;;13.82;10.25;;;-0.90;77.70;;;;;;5090946;29;20039;-65
2021/03/07 02:01:24;;;;;;;16.30;10.85;;;-0.80;77.30;;;;;;5094871;29;20874;-65
2021/03/07 02:03:55;;;;;;;13.70;10.27;;;-0.80;77.10;;;;;;5093002;29;20119;-64
2021/03/07 02:06:26;;;;;;;16.83;11.30;;;-0.80;76.80;;;;;;5086347;29;20059;-66
2021/03/07 02:09:02;;;;;;;13.35;9.65;;;-0.80;77.00;;;;;;5091526;29;20135;-65
2021/03/07 02:11:37;;;;;;;16.05;11.10;;;-0.80;76.90;;;;;;5092343;29;20122;-67
2021/03/07 02:14:10;;;;;;;14.05;10.07;;;-0.80;77.00;;;;;;5092421;29;20051;-64
2021/03/07 02:16:42;;;;;;;13.90;10.35;;;-0.80;77.80;;;;;;5089074;29;20044;-64
2021/03/07 02:19:17;;;;;;;15.65;10.60;;;-0.80;78.50;;;;;;5094900;29;20052;-64
2021/03/07 02:21:51;;;;;;;14.05;9.73;;;-0.90;79.10;;;;;;5091063;29;20107;-66
2021/03/07 02:24:22;;;;;;;15.88;10.25;;;-0.80;79.30;;;;;;5088772;29;20039;-65
2021/03/07 02:26:54;;;;;;;15.90;10.45;;;-0.80;78.80;;;;;;5091630;29;20074;-65
2021/03/07 02:29:26;;;;;;;14.52;9.93;;;-0.70;78.70;;;;;;5091483;29;20130;-64
2021/03/07 02:32:03;;;;;;;13.05;8.30;;;-0.70;78.90;;;;;;5089823;29;20048;-64
2021/03/07 02:35:02;;;;;;;13.23;9.35;;;-0.70;79.30;;;;;;5093694;29;20123;-65
2021/03/07 02:37:35;;;;;;;15.18;9.73;;;-0.60;79.10;;;;;;5092437;29;20147;-66
2021/03/07 02:40:11;;;;;;;13.95;9.40;;;-0.60;78.60;;;;;;5092008;29;20055;-66
2021/03/07 02:42:46;;;;;;;12.80;9.30;;;-0.60;78.70;;;;;;5099300;29;20138;-65
2021/03/07 02:45:22;;;;;;;14.25;10.30;;;-0.60;79.00;;;;;;5095152;29;20099;-65
2021/03/07 02:47:55;;;;;;;14.98;10.18;;;-0.60;78.50;;;;;;5098963;29;20142;-65
2021/03/07 02:50:29;;;;;;;14.63;10.25;;;-0.60;78.10;;;;;;5086519;29;20470;-64
2021/03/07 02:53:08;;;;;;;11.35;6.82;;;-0.60;77.60;;;;;;5091139;29;20061;-65
2021/03/07 02:55:42;;;;;;;10.32;6.45;;;-0.60;79.00;;;;;;5094485;29;20760;-64
2021/03/07 02:58:16;;;;;;;14.02;9.23;;;-0.60;79.70;;;;;;5094096;29;20056;-64
2021/03/07 03:00:53;;;;;;;14.68;10.07;;;-0.50;79.10;;;;;;5093076;29;20071;-66
2021/03/07 03:03:32;;;;;;;12.93;9.20;;;-0.50;78.80;;;;;;5097644;29;20155;-64
2021/03/07 03:06:05;;;;;;;17.08;10.88;;;-0.40;78.30;;;;;;5094558;29;20051;-66
2021/03/07 03:08:38;;;;;;;13.20;9.65;;;-0.40;77.90;;;;;;5097430;29;20059;-64
2021/03/07 03:11:11;;;;;;;13.52;9.48;;;-0.40;77.80;;;;;;5108412;29;20059;-64
2021/03/07 03:13:42;;;;;;;15.07;10.43;;;-0.40;77.10;;;;;;5097995;29;20063;-65
2021/03/07 03:16:14;;;;;;;13.82;9.68;;;-0.30;76.90;;;;;;5093627;29;20063;-64
2021/03/07 03:18:47;;;;;;;13.32;10.27;;;-0.30;77.10;;;;;;5107630;29;20048;-65
2021/03/07 03:21:19;;;;;;;14.38;10.10;;;-0.30;76.90;;;;;;5076116;29;20059;-64
2021/03/07 03:23:50;;;;;;;13.50;9.68;;;-0.30;76.60;;;;;;5094947;29;20055;-64
2021/03/07 03:26:24;;;;;;;13.85;9.68;;;-0.40;76.70;;;;;;5092899;29;20127;-66
2021/03/07 03:28:56;;;;;;;14.50;10.10;;;-0.40;77.30;;;;;;5092398;29;20164;-64
2021/03/07 03:31:28;;;;;;;13.00;9.20;;;-0.40;77.20;;;;;;5090181;29;20135;-64
2021/03/07 03:34:01;;;;;;;13.93;9.30;;;-0.50;77.30;;;;;;5093258;29;20039;-64
2021/03/07 03:36:34;;;;;;;13.23;9.13;;;-0.50;77.30;;;;;;5090293;29;20675;-66
2021/03/07 03:39:24;;;;;;;13.27;9.30;;;-0.40;77.20;;;;;;5090462;29;20139;-64
2021/03/07 03:42:00;;;;;;;13.00;9.00;;;-0.40;77.10;;;;;;5095194;29;20126;-64
2021/03/07 03:44:38;;;;;;;15.52;9.30;;;-0.40;76.80;;;;;;5094054;29;20048;-65
2021/03/07 03:47:12;;;;;;;14.32;8.80;;;-0.40;77.00;;;;;;5087992;29;20260;-64
2021/03/07 03:49:54;;;;;;;14.25;8.77;;;-0.50;77.30;;;;;;5091892;29;20040;-64
2021/03/07 03:52:27;;;;;;;12.00;8.60;;;-0.40;77.70;;;;;;5092217;29;20142;-65
2021/03/07 03:55:10;;;;;;;14.90;8.80;;;-0.40;78.00;;;;;;5093828;29;20126;-65
2021/03/07 03:57:43;;;;;;;12.13;8.07;;;-0.40;77.60;;;;;;5094548;29;20051;-66
2021/03/07 04:00:19;;;;;;;12.77;8.80;;;-0.40;77.00;;;;;;5090706;29;20098;-65
2021/03/07 04:02:54;;;;;;;12.73;9.23;;;-0.30;77.10;;;;;;5094897;29;20083;-65
2021/03/07 04:05:28;;;;;;;12.18;8.13;;;-0.40;77.00;;;;;;5092257;29;20541;-64
2021/03/07 04:08:01;;;;;;;11.48;7.88;;;-0.40;76.80;;;;;;5085767;29;20051;-64
2021/03/07 04:10:32;;;;;;;11.43;7.90;;;-0.30;76.90;;;;;;5094035;29;20058;-66
2021/03/07 04:13:04;;;;;;;12.95;8.18;;;-0.30;76.40;;;;;;5094578;29;20044;-67
2021/03/07 04:15:36;;;;;;;12.43;7.90;;;-0.30;76.30;;;;;;5095855;29;20047;-67
2021/03/07 04:18:12;;;;;;;14.38;7.65;;;-0.30;76.20;;;;;;5095947;29;20051;-64
2021/03/07 04:20:45;;;;;;;12.27;8.23;;;-0.30;76.50;;;;;;5096303;29;20047;-65
2021/03/07 04:23:17;;;;;;;13.45;8.50;;;-0.30;76.20;;;;;;5093647;29;20051;-66
2021/03/07 04:25:49;;;;;;;12.25;8.60;;;-0.30;76.20;;;;;;5096052;29;20050;-65
2021/03/07 04:28:22;;;;;;;12.38;8.27;;;-0.30;76.50;;;;;;5095556;29;20478;-65
2021/03/07 04:30:54;;;;;;;11.05;8.45;;;-0.30;76.30;;;;;;5094087;29;20752;-65
2021/03/07 04:33:26;;;;;;;12.75;8.70;;;-0.30;76.20;;;;;;5097273;29;20043;-64
2021/03/07 04:35:59;;;;;;;15.40;9.77;;;-0.30;76.20;;;;;;5094263;29;20445;-64
2021/03/07 04:38:32;;;;;;;11.70;8.18;;;-0.30;76.40;;;;;;5094345;29;20398;-66
2021/03/07 04:41:03;;;;;;;14.13;9.05;;;-0.30;75.90;;;;;;5091050;29;20104;-68
2021/03/07 04:43:51;;;;;;;16.52;11.40;;;-0.30;75.80;;;;;;5094448;29;20074;-65
2021/03/07 04:46:24;;;;;;;14.93;10.55;;;-0.30;76.10;;;;;;5093855;29;20085;-65
2021/03/07 04:48:56;;;;;;;12.95;9.70;;;-0.40;76.10;;;;;;5091240;29;20476;-64
2021/03/07 04:51:28;;;;;;;15.80;11.20;;;-0.30;76.00;;;;;;5092563;29;20055;-64
2021/03/07 04:53:59;;;;;;;15.48;11.07;;;-0.30;76.30;;;;;;5095749;29;20039;-65
2021/03/07 04:56:31;;;;;;;15.15;11.18;;;-0.40;76.60;;;;;;5094116;29;20146;-65
2021/03/07 04:59:03;;;;;;;17.67;11.80;;;-0.40;77.00;;;;;;5096252;29;20058;-65
2021/03/07 05:01:36;;;;;;;15.98;11.52;;;-0.40;77.10;;;;;;5090327;29;20047;-65
2021/03/07 05:04:07;;;;;;;15.00;10.82;;;-0.40;77.00;;;;;;5089720;29;20131;-64
2021/03/07 05:06:42;;;;;;;16.98;11.23;;;-0.40;77.00;;;;;;5095570;29;20043;-65
2021/03/07 05:09:14;;;;;;;16.95;10.85;;;-0.40;77.00;;;;;;5094756;29;20450;-66
2021/03/07 05:11:46;;;;;;;18.15;11.50;;;-0.40;77.20;;;;;;5094386;29;20138;-67
2021/03/07 05:14:17;;;;;;;13.68;10.40;;;-0.30;77.00;;;;;;5091531;29;20791;-65
2021/03/07 05:16:49;;;;;;;13.45;10.40;;;-0.30;77.50;;;;;;5093945;29;20044;-64
2021/03/07 05:19:20;;;;;;;15.88;10.10;;;-0.30;77.80;;;;;;5090778;29;20043;-65
2021/03/07 05:21:52;;;;;;;14.30;10.30;;;-0.30;78.20;;;;;;5092974;29;20127;-65
2021/03/07 05:24:23;;;;;;;16.50;9.73;;;-0.30;78.40;;;;;;5094323;29;20126;-65
2021/03/07 05:26:54;;;;;;;14.85;11.07;;;-0.40;78.10;;;;;;5090242;29;20102;-65
2021/03/07 05:29:26;;;;;;;16.55;10.52;;;-0.30;78.00;;;;;;5086820;29;20603;-65
2021/03/07 05:31:57;;;;;;;16.65;10.75;;;-0.30;78.60;;;;;;5091354;29;20491;-66
2021/03/07 05:34:30;;;;;;;15.63;9.05;;;-0.30;78.40;;;;;;5092027;29;20513;-65
2021/03/07 05:37:01;;;;;;;14.77;10.50;;;-0.30;78.60;;;;;;5092001;29;20111;-67
2021/03/07 05:39:33;;;;;;;13.38;9.40;;;-0.30;78.90;;;;;;5090867;29;20075;-66
2021/03/07 05:42:04;;;;;;;14.85;9.80;;;-0.30;78.50;;;;;;5093386;29;20043;-65
2021/03/07 05:44:36;;;;;;;12.95;10.10;;;-0.20;78.20;;;;;;5087560;29;20083;-64
2021/03/07 05:47:09;;;;;;;13.30;9.32;;;-0.20;78.90;;;;;;5088965;29;20109;-65
2021/03/07 05:49:41;;;;;;;12.85;9.25;;;-0.20;79.00;;;;;;5094501;29;20079;-64
2021/03/07 05:52:13;;;;;;;16.83;10.13;;;-0.20;79.20;;;;;;5090258;29;20150;-64
2021/03/07 05:54:44;;;;;;;12.40;9.05;;;-0.20;79.60;;;;;;5093732;29;20040;-65
2021/03/07 05:57:18;;;;;;;14.13;9.88;;;-0.10;79.00;;;;;;5090458;29;20142;-65
2021/03/07 05:59:50;;;;;;;12.05;8.75;;;-0.10;79.00;;;;;;5092820;29;20094;-64
2021/03/07 06:02:22;;;;;;;14.30;9.48;;;-0.10;80.00;;;;;;5088893;29;20043;-64
2021/03/07 06:04:54;;;;;;;14.50;9.45;;;-0.10;80.50;;;;;;5086561;29;20694;-64
2021/03/07 06:07:38;;;;;;;12.45;9.88;;;-0.20;81.60;;;;;;5089242;29;20475;-64
2021/03/07 06:10:16;;;;;;;14.88;10.77;;;-0.20;82.40;;;;;;5089422;29;20476;-64
2021/03/07 06:13:00;;;;;;;16.30;11.18;;;-0.40;82.90;;;;;;5086959;29;20048;-65
2021/03/07 06:16:09;;;;;;;15.32;10.88;;;-0.50;83.70;;;;;;5092621;29;20047;-64
2021/03/07 06:18:45;;;;;;;16.15;11.35;;;-0.40;83.70;;;;;;5094042;29;20047;-64
2021/03/07 06:21:31;;;;;;;13.75;9.88;;;-0.40;84.20;;;;;;5092537;29;20079;-65
2021/03/07 06:24:03;;;;;;;14.60;10.82;;;-0.20;83.90;;;;;;5094202;29;20039;-65
2021/03/07 06:26:35;;;;;;;15.60;10.95;;;-0.20;83.60;;;;;;5093943;29;20484;-63
2021/03/07 06:29:08;;;;;;;14.20;10.75;;;0.00;83.30;;;;;;5093406;29;20039;-63
2021/03/07 06:31:41;;;;;;;13.80;10.48;;;0.10;83.20;;;;;;5089481;29;20691;-63
2021/03/07 06:34:13;;;;;;;15.55;11.45;;;0.00;84.30;;;;;;5085033;29;20071;-63
2021/03/07 06:36:45;;;;;;;14.48;10.40;;;0.10;84.50;;;;;;5084065;29;20064;-64
2021/03/07 06:39:16;;;;;;;14.82;11.23;;;0.20;84.50;;;;;;5087896;29;20688;-65
2021/03/07 06:42:00;;;;;;;15.45;10.10;;;0.20;84.10;;;;;;5091482;29;20751;-65
2021/03/07 06:44:33;;;;;;;14.90;9.93;;;0.20;84.40;;;;;;5088526;29;20123;-64
2021/03/07 06:47:12;;;;;;;11.68;9.90;;;0.20;84.90;;;;;;5090770;29;20489;-64
2021/03/07 06:49:44;;;;;;;17.83;11.10;;;0.30;84.50;;;;;;5084307;29;20438;-63
2021/03/07 06:52:19;;;;;;;13.23;10.40;;;0.30;84.90;;;;;;5081250;29;20147;-64
2021/03/07 06:55:02;;;;;;;16.85;11.07;;;0.30;84.90;;;;;;5089461;29;20631;-63
2021/03/07 06:57:33;;;;;;;17.65;11.77;;;0.20;84.50;;;;;;5089145;29;20044;-66
2021/03/07 07:00:06;;;;;;;15.25;11.35;;;0.10;84.40;;;;;;5091248;29;20736;-64
2021/03/07 07:02:37;;;;;;;13.82;10.45;;;0.20;84.80;;;;;;5090042;29;20071;-65
2021/03/07 07:05:10;;;;;;;17.10;11.63;;;0.10;85.00;;;;;;5085690;29;20072;-65
2021/03/07 07:07:48;;;;;;;19.45;11.80;;;0.10;84.90;;;;;;5090909;29;20151;-64
2021/03/07 07:10:19;;;;;;;17.40;11.68;;;0.10;85.60;;;;;;5087920;29;20138;-64
2021/03/07 07:12:50;;;;;;;17.05;11.90;;;0.00;86.20;;;;;;5089101;29;20516;-66
2021/03/07 07:15:22;;;;;;;15.77;11.90;;;0.20;86.10;;;;;;5090991;29;20059;-66
2021/03/07 07:17:54;;;;;;;16.88;11.70;;;0.30;85.70;;;;;;5091927;29;20541;-67
2021/03/07 07:20:27;;;;;;;16.35;12.40;;;0.40;85.40;;;;;;5088675;29;20055;-65
2021/03/07 07:22:59;;;;;;;14.57;10.10;;;0.50;85.80;;;;;;5075019;29;20075;-66
2021/03/07 07:25:30;;;;;;;15.35;10.88;;;0.50;87.00;;;;;;5076319;29;20055;-66
2021/03/07 07:28:02;;;;;;;15.70;10.52;;;0.60;86.70;;;;;;5082316;29;20047;-68
2021/03/07 07:30:33;;;;;;;14.88;10.60;;;0.70;86.20;;;;;;5080697;29;20132;-67
2021/03/07 07:33:11;;;;;;;16.58;10.75;;;0.70;86.20;;;;;;5087121;29;20142;-66
2021/03/07 07:35:44;;;;;;;15.35;10.88;;;0.60;85.40;;;;;;5077827;29;20135;-67
2021/03/07 07:38:18;;;;;;;13.85;10.60;;;0.70;85.80;;;;;;5073656;29;20179;-67
2021/03/07 07:40:50;;;;;;;14.10;11.10;;;0.70;85.80;;;;;;5087377;28;20720;-66
2021/03/07 07:43:21;;;;;;;14.35;10.45;;;0.80;85.70;;;;;;5072812;29;20055;-65
2021/03/07 07:46:12;;;;;;;13.98;10.00;;;0.90;85.80;;;;;;5072003;29;20048;-66
2021/03/07 07:48:44;;;;;;;14.15;10.10;;;1.00;85.50;;;;;;5075187;29;20044;-66
2021/03/07 07:51:37;;;;;;;15.02;10.25;;;1.00;85.50;;;;;;5083974;29;20601;-66
2021/03/07 07:54:48;;;;;;;15.80;9.93;;;1.10;85.30;;;;;;5079972;29;20057;-65
2021/03/07 07:57:32;;;;;;;;;;;1.20;84.80;;;;;;5079943;29;20577;-66
2021/03/07 08:00:03;;;;;;;14.80;9.50;;;1.30;85.00;;;;;;5080466;29;19930;-68
2021/03/07 08:02:47;;;;;;;16.85;11.60;;;1.40;84.70;;;;;;5077516;29;20076;-66
2021/03/07 08:05:22;;;;;;;17.67;12.77;;;1.50;84.90;;;;;;5080068;29;20075;-65
2021/03/07 08:08:06;;;;;;;13.57;11.35;;;1.50;84.60;;;;;;5079563;29;20590;-65
2021/03/07 08:10:40;;;;;;;15.57;11.88;;;1.40;84.90;;;;;;5076313;29;20085;-66
2021/03/07 08:13:14;;;;;;;14.65;11.35;;;1.40;85.10;;;;;;5079504;29;20165;-65
2021/03/07 08:15:52;;;;;;;13.95;10.75;;;1.30;85.80;;;;;;5078762;29;20715;-67
2021/03/07 08:18:43;;;;;;;15.35;11.20;;;1.30;85.60;;;;;;5081914;29;20417;-67
2021/03/07 08:21:17;;;;;;;15.23;11.43;;;1.30;85.10;;;;;;5078311;29;20075;-66
2021/03/07 08:24:20;;;;;;;17.10;11.43;;;1.30;85.00;;;;;;5072273;29;20478;-68
2021/03/07 08:27:00;;;;;;;17.10;11.73;;;1.20;85.60;;;;;;5070801;29;20048;-67
2021/03/07 08:29:46;;;;;;;22.15;13.35;;;1.20;85.90;;;;;;5093827;29;20052;-68
2021/03/07 08:32:45;;;;;;;101.28;50.13;;;1.20;85.90;;;;;;5076254;29;20956;-68
2021/03/07 08:35:28;;;;;;;68.15;33.17;;;1.20;85.70;;;;;;5071772;29;20193;-69
2021/03/07 08:38:19;;;;;;;21.55;15.68;;;1.30;85.80;;;;;;5050010;29;20139;-67
2021/03/07 08:41:02;;;;;;;22.83;16.90;;;1.30;85.60;;;;;;5094851;29;20151;-68
2021/03/07 08:43:39;;;;;;;14.70;10.90;;;1.30;85.40;;;;;;5077496;29;20730;-69
2021/03/07 08:46:22;;;;;;;14.57;10.90;;;1.30;85.40;;;;;;5069140;29;20840;-69
2021/03/07 08:49:09;;;;;;;16.15;13.23;;;1.40;85.90;;;;;;5071889;29;20028;-69
2021/03/07 08:51:47;;;;;;;17.95;12.93;;;1.70;85.80;;;;;;5060321;29;20172;-69
2021/03/07 08:54:26;;;;;;;17.88;12.63;;;2.00;86.40;;;;;;5091156;29;20048;-67
2021/03/07 08:57:04;;;;;;;17.38;11.60;;;2.30;86.20;;;;;;5085349;29;20050;-68
2021/03/07 08:59:36;;;;;;;16.13;12.13;;;2.60;85.40;;;;;;5094309;29;20532;-68
2021/03/07 09:02:07;;;;;;;16.48;11.88;;;2.80;84.50;;;;;;5086403;29;20039;-67
2021/03/07 09:04:40;;;;;;;15.70;11.75;;;3.00;84.10;;;;;;5082506;29;20059;-67
2021/03/07 09:07:12;;;;;;;14.32;10.75;;;3.10;84.00;;;;;;5080700;29;20647;-67
2021/03/07 09:09:43;;;;;;;14.50;11.40;;;3.20;83.70;;;;;;5080079;29;20612;-65
2021/03/07 09:12:17;;;;;;;14.30;10.90;;;3.20;84.20;;;;;;5086489;29;20106;-66
2021/03/07 09:14:48;;;;;;;19.38;11.93;;;3.20;83.90;;;;;;5090278;29;20857;-67
2021/03/07 09:17:22;;;;;;;15.93;12.07;;;3.10;83.60;;;;;;5076664;29;20071;-64
2021/03/07 09:19:53;;;;;;;15.13;10.93;;;3.10;84.20;;;;;;5086515;29;20095;-66
2021/03/07 09:22:27;;;;;;;16.00;11.98;;;3.30;85.80;;;;;;5081012;29;20083;-65
2021/03/07 09:24:58;;;;;;;13.43;11.32;;;3.60;85.50;;;;;;5082651;29;20904;-67
2021/03/07 09:27:41;;;;;;;14.80;10.55;;;3.80;84.00;;;;;;5080698;29;20042;-65
2021/03/07 09:30:15;;;;;;;16.15;10.65;;;4.00;82.20;;;;;;5089883;29;20263;-64
2021/03/07 09:32:51;;;;;;;24.48;11.52;;;4.10;82.20;;;;;;5085967;29;20064;-65
2021/03/07 09:35:40;;;;;;;14.05;11.07;;;4.30;82.90;;;;;;5084396;29;20122;-64
2021/03/07 09:38:13;;;;;;;12.55;10.57;;;4.60;82.50;;;;;;5070730;29;20071;-66
2021/03/07 09:40:44;;;;;;;19.00;11.02;;;4.90;81.80;;;;;;5080950;29;20092;-63
2021/03/07 09:43:19;;;;;;;18.42;10.25;;;4.90;79.60;;;;;;5086103;29;20084;-65
2021/03/07 09:45:51;;;;;;;16.10;10.40;;;4.70;78.90;;;;;;5085370;29;20158;-64
2021/03/07 09:48:33;;;;;;;13.77;11.07;;;4.60;80.10;;;;;;5079295;29;20039;-63
2021/03/07 09:51:11;;;;;;;15.52;10.23;;;4.70;80.50;;;;;;5088918;29;20048;-66
2021/03/07 09:53:43;;;;;;;14.60;10.57;;;4.80;80.60;;;;;;5085339;29;20126;-64
2021/03/07 09:56:24;;;;;;;16.40;10.55;;;5.00;80.10;;;;;;5088247;29;20078;-64
2021/03/07 10:01:58;;;;;;;13.90;10.48;;;5.60;78.80;;;;;;5364588;23;20358;-66
2021/03/07 10:04:40;;;;;;;15.88;10.30;;;5.90;79.90;;;;;;5092648;29;20051;-64
2021/03/07 10:07:21;;;;;;;15.85;10.73;;;6.10;78.20;;;;;;5090513;29;20047;-65
2021/03/07 10:10:07;;;;;;;12.73;9.65;;;6.10;77.10;;;;;;5093691;29;20143;-64
2021/03/07 10:12:46;;;;;;;13.27;10.20;;;5.90;77.00;;;;;;5084273;29;20068;-63
2021/03/07 10:15:34;;;;;;;13.52;10.40;;;5.90;77.10;;;;;;5092379;29;20048;-65
2021/03/07 10:18:17;;;;;;;17.63;10.32;;;5.80;76.50;;;;;;5062737;29;20732;-65
2021/03/07 10:20:51;;;;;;;16.42;9.90;;;6.00;77.40;;;;;;5083733;29;20048;-64
2021/03/07 10:23:32;;;;;;;15.38;10.30;;;6.10;77.00;;;;;;5044014;29;20044;-67
2021/03/07 10:26:05;;;;;;;13.85;10.70;;;6.20;76.80;;;;;;5076792;29;20152;-65
2021/03/07 10:28:38;;;;;;;14.63;10.35;;;6.30;75.70;;;;;;5079522;29;20043;-66
2021/03/07 10:31:13;;;;;;;12.93;10.55;;;6.50;76.60;;;;;;5074851;29;20059;-64
2021/03/07 10:33:53;;;;;;;17.30;10.63;;;6.70;75.40;;;;;;5076235;29;20048;-65
2021/03/07 10:36:24;;;;;;;17.98;12.98;;;7.00;75.90;;;;;;5077614;29;20459;-65
2021/03/07 10:39:11;;;;;;;19.63;12.73;;;7.20;75.30;;;;;;5081919;29;20146;-64
2021/03/07 10:41:43;;;;;;;18.05;12.73;;;7.50;74.60;;;;;;5079984;29;20813;-64
2021/03/07 10:44:24;;;;;;;17.83;12.82;;;7.60;74.60;;;;;;5085232;29;20085;-65
2021/03/07 10:46:55;;;;;;;21.90;12.85;;;7.70;73.60;;;;;;5065667;29;20071;-65
2021/03/07 10:49:27;;;;;;;14.98;11.65;;;7.80;73.30;;;;;;5080149;29;20092;-65
2021/03/07 10:51:59;;;;;;;13.27;10.93;;;8.00;73.20;;;;;;5083690;29;20135;-64
2021/03/07 10:54:31;;;;;;;16.00;11.60;;;8.20;73.50;;;;;;5082860;29;20123;-65
2021/03/07 10:57:06;;;;;;;15.55;11.52;;;8.50;72.10;;;;;;5080575;29;20055;-66
2021/03/07 10:59:38;;;;;;;15.35;11.32;;;8.70;70.20;;;;;;5084716;29;20059;-65
2021/03/07 11:02:14;;;;;;;17.77;12.20;;;8.90;69.20;;;;;;5085965;29;20120;-64
2021/03/07 11:04:46;;;;;;;18.52;11.15;;;9.00;68.60;;;;;;5093876;29;20039;-65
2021/03/07 11:07:17;;;;;;;16.02;10.43;;;9.30;68.70;;;;;;5087157;29;20047;-65
2021/03/07 11:09:49;;;;;;;13.20;10.85;;;9.50;68.60;;;;;;5082347;29;20047;-64
2021/03/07 11:12:20;;;;;;;17.58;10.88;;;9.60;67.70;;;;;;5089635;29;20135;-64
2021/03/07 11:14:52;;;;;;;18.25;11.38;;;9.70;65.60;;;;;;5092586;29;20098;-66
2021/03/07 11:17:23;;;;;;;16.67;11.38;;;9.60;65.20;;;;;;5092157;29;20138;-65
2021/03/07 11:19:55;;;;;;;18.52;12.10;;;9.50;65.80;;;;;;5085291;29;20820;-65
2021/03/07 11:22:26;;;;;;;13.02;11.45;;;9.60;64.30;;;;;;5085745;29;20147;-65
2021/03/07 11:24:58;;;;;;;13.68;11.30;;;9.80;63.90;;;;;;5087046;29;20044;-65
2021/03/07 11:27:29;;;;;;;15.38;11.00;;;10.00;64.00;;;;;;5091549;29;20056;-64
2021/03/07 11:30:03;;;;;;;14.38;11.25;;;10.30;63.30;;;;;;5094458;29;20039;-64
2021/03/07 11:32:34;;;;;;;14.40;11.45;;;10.40;62.80;;;;;;5094647;29;20126;-65
2021/03/07 11:35:07;;;;;;;14.60;11.77;;;10.60;62.10;;;;;;5081451;29;20119;-65
2021/03/07 11:37:38;;;;;;;17.38;11.80;;;10.60;61.80;;;;;;5078353;29;20051;-64
2021/03/07 11:40:10;;;;;;;18.05;10.88;;;10.60;63.30;;;;;;5086721;29;20819;-64
2021/03/07 11:42:41;;;;;;;18.55;11.85;;;10.50;63.20;;;;;;5086352;29;20522;-66
2021/03/07 11:45:13;;;;;;;14.63;11.98;;;10.50;62.70;;;;;;5089031;29;20123;-64
2021/03/07 11:47:45;;;;;;;16.05;12.32;;;10.50;62.90;;;;;;5086875;29;20089;-65
2021/03/07 11:50:17;;;;;;;19.92;11.73;;;10.50;62.10;;;;;;5080849;29;20640;-66
2021/03/07 11:52:48;;;;;;;13.45;11.98;;;10.70;61.60;;;;;;5086659;29;20322;-65
2021/03/07 11:55:20;;;;;;;16.33;12.13;;;10.90;59.60;;;;;;5084693;29;20128;-65
2021/03/07 11:57:51;;;;;;;17.67;12.00;;;11.10;60.10;;;;;;5078355;29;20039;-65
2021/03/07 12:00:23;;;;;;;17.10;11.13;;;11.10;57.70;;;;;;5086125;29;20678;-67
2021/03/07 12:02:54;;;;;;;16.75;11.63;;;10.70;55.80;;;;;;5082555;29;20122;-65
2021/03/07 12:05:29;;;;;;;16.70;12.02;;;10.50;55.30;;;;;;5084133;29;20048;-67
2021/03/07 12:08:00;;;;;;;15.77;11.52;;;10.30;54.20;;;;;;5085695;29;20040;-65
2021/03/07 12:10:32;;;;;;;14.23;11.10;;;10.20;55.20;;;;;;5083237;29;20050;-64
2021/03/07 12:13:03;;;;;;;19.20;11.77;;;9.90;56.10;;;;;;5086568;29;20135;-65
2021/03/07 12:15:35;;;;;;;17.88;12.63;;;9.70;56.90;;;;;;5082628;29;20068;-65
2021/03/07 12:18:07;;;;;;;17.83;12.35;;;9.60;57.60;;;;;;5084605;29;20076;-66
2021/03/07 12:20:38;;;;;;;17.95;12.32;;;9.50;56.20;;;;;;5088914;29;20130;-65
2021/03/07 12:23:10;;;;;;;18.75;11.65;;;9.50;56.80;;;;;;5088360;29;20043;-65
2021/03/07 12:25:41;;;;;;;29.60;12.77;;;9.50;57.20;;;;;;5085946;29;20063;-65
2021/03/07 12:28:13;;;;;;;15.02;11.05;;;9.70;58.20;;;;;;5086002;29;20493;-65
2021/03/07 12:30:44;;;;;;;17.20;11.50;;;9.80;55.00;;;;;;5069135;29;21525;-65
2021/03/07 12:33:16;;;;;;;19.63;11.13;;;9.90;54.60;;;;;;5069279;29;20147;-65
2021/03/07 12:35:47;;;;;;;13.95;11.10;;;10.00;54.50;;;;;;5084010;29;20831;-66
2021/03/07 12:38:19;;;;;;;16.75;11.70;;;10.00;56.10;;;;;;5090530;29;20797;-65
2021/03/07 12:40:51;;;;;;;14.77;11.00;;;9.90;56.80;;;;;;5080575;29;20051;-64
2021/03/07 12:43:23;;;;;;;18.85;11.50;;;10.00;55.20;;;;;;5068729;29;20075;-65
2021/03/07 12:45:54;;;;;;;14.25;11.00;;;10.10;54.50;;;;;;5085480;29;20071;-64
2021/03/07 12:48:27;;;;;;;15.98;10.85;;;10.40;56.40;;;;;;5082553;29;20103;-65
2021/03/07 12:51:05;;;;;;;18.50;11.43;;;10.50;54.50;;;;;;5085443;29;20032;-65
2021/03/07 12:53:38;;;;;;;13.80;10.75;;;10.50;53.40;;;;;;5092888;29;20091;-65
2021/03/07 12:56:09;;;;;;;19.48;11.80;;;10.40;55.70;;;;;;5091473;29;20126;-64
2021/03/07 12:58:41;;;;;;;16.77;11.18;;;10.30;56.50;;;;;;5092791;29;20616;-65
2021/03/07 13:01:12;;;;;;;16.73;10.85;;;10.20;55.20;;;;;;5094135;29;20139;-65
2021/03/07 13:03:44;;;;;;;15.90;11.32;;;10.20;54.50;;;;;;5093860;29;20047;-65
2021/03/07 13:06:15;;;;;;;12.27;10.43;;;10.20;56.20;;;;;;5092723;29;20131;-64
2021/03/07 13:08:46;;;;;;;14.90;11.52;;;10.20;55.10;;;;;;5091406;29;20130;-64
2021/03/07 13:11:18;;;;;;;16.45;11.05;;;10.20;56.30;;;;;;5081313;29;20059;-65
2021/03/07 13:13:50;;;;;;;13.82;10.93;;;10.10;56.20;;;;;;5076098;29;20347;-65